Latest Weather Observations for Outer Harbor (Black Pole)

IDS60801

Issued at 2:35 pm CST Friday 25 July 2014 (issued every 30 minutes, with the page automatically refreshed every 10 minutes)

About weather observations | Map of weather stations | Latest weather observations for SA | Other Formats
Station Details ID: 023052 Name: BLACK POLE Lat: -34.73 Lon: 138.47 Height: 8.0 m
Data from the previous 72 hours. | See also: Recent months for locations in South Australia
Date/Time
CST
Temp
°C
App
Temp
°C
Dew
Point
Rel
Hum
%
Delta-T
°C
Wind Press
QNH
hPa
Press
MSL
hPa
Rain
since 9 am
mm
Dir
 
Spd
km/h
Gust
km/h
Spd
kts
Gust
kts
25/02:30pm - - - - - NW 13 15 7 8 - - -
25/02:00pm - - - - - NNW 13 17 7 9 - - -
25/01:30pm - - - - - NNW 17 19 9 10 - - -
25/01:00pm - - - - - NNW 17 20 9 11 - - -
25/12:30pm - - - - - NNW 20 24 11 13 - - -
25/12:00pm - - - - - N 20 24 11 13 - - -
25/11:30am - - - - - N 19 24 10 13 - - -
25/11:00am - - - - - N 20 26 11 14 - - -
25/10:30am - - - - - NNW 20 24 11 13 - - -
25/10:00am - - - - - N 20 24 11 13 - - -
25/09:30am - - - - - N 22 26 12 14 - - -
25/09:00am - - - - - NNW 17 20 9 11 - - -
25/08:30am - - - - - NW 20 24 11 13 - - -
25/08:00am - - - - - NW 24 30 13 16 - - -
25/07:30am - - - - - NW 28 32 15 17 - - -
25/07:00am - - - - - NW 26 30 14 16 - - -
25/06:30am - - - - - NNW 26 30 14 16 - - -
25/06:00am - - - - - NNW 26 30 14 16 - - -
25/05:30am - - - - - NNW 24 28 13 15 - - -
25/05:00am - - - - - NNW 22 28 12 15 - - -
25/04:30am - - - - - NNW 24 28 13 15 - - -
25/04:00am - - - - - NNW 28 32 15 17 - - -
25/03:30am - - - - - NNW 30 35 16 19 - - -
25/03:00am - - - - - NNW 32 39 17 21 - - -
25/02:30am - - - - - NNW 32 37 17 20 - - -
25/02:00am - - - - - NNW 30 35 16 19 - - -
25/01:30am - - - - - NNW 28 33 15 18 - - -
25/01:00am - - - - - NNW 30 37 16 20 - - -
25/12:30am - - - - - NNW 30 35 16 19 - - -
25/12:00am - - - - - NNW 28 33 15 18 - - -
 
Date/Time
CST
Temp
°C
App
Temp
°C
Dew
Point
Rel
Hum
%
Delta-T
°C
Wind Press
QNH
hPa
Press
MSL
hPa
Rain
since 9 am
mm
Dir
 
Spd
km/h
Gust
km/h
Spd
kts
Gust
kts
24/11:30pm - - - - - NW 30 33 16 18 - - -
24/11:00pm - - - - - NW 30 33 16 18 - - -
24/10:30pm - - - - - NW 30 35 16 19 - - -
24/10:00pm - - - - - NNW 26 30 14 16 - - -
24/09:30pm - - - - - NW 20 24 11 13 - - -
24/09:00pm - - - - - WNW 24 32 13 17 - - -
24/08:30pm - - - - - NW 22 28 12 15 - - -
24/08:00pm - - - - - NW 30 37 16 20 - - -
24/07:30pm - - - - - NW 30 37 16 20 - - -
24/07:00pm - - - - - NNW 33 41 18 22 - - -
24/06:30pm - - - - - NNW 30 37 16 20 - - -
24/06:00pm - - - - - N 26 32 14 17 - - -
24/05:30pm - - - - - NW 26 32 14 17 - - -
24/05:00pm - - - - - NW 24 30 13 16 - - -
24/04:30pm - - - - - NW 26 32 14 17 - - -
24/04:00pm - - - - - WNW 32 35 17 19 - - -
24/03:30pm - - - - - NW 33 39 18 21 - - -
24/03:00pm - - - - - NNW 28 35 15 19 - - -
24/02:30pm - - - - - NNW 30 37 16 20 - - -
24/02:00pm - - - - - NNW 26 30 14 16 - - -
24/01:30pm - - - - - NNW 22 28 12 15 - - -
24/01:00pm - - - - - NNW 22 26 12 14 - - -
24/12:30pm - - - - - N 20 24 11 13 - - -
24/12:00pm - - - - - NNW 22 28 12 15 - - -
24/11:30am - - - - - NNW 28 32 15 17 - - -
24/11:00am - - - - - N 28 33 15 18 - - -
24/10:30am - - - - - N 24 28 13 15 - - -
24/10:00am - - - - - NNW 32 35 17 19 - - -
24/09:30am - - - - - NNW 33 41 18 22 - - -
24/09:00am - - - - - NNW 35 43 19 23 - - -
24/08:30am - - - - - NNW 30 37 16 20 - - -
24/08:00am - - - - - NNW 32 41 17 22 - - -
24/07:30am - - - - - NNW 30 37 16 20 - - -
24/07:00am - - - - - NW 35 44 19 24 - - -
24/06:30am - - - - - NNW 33 39 18 21 - - -
24/06:00am - - - - - N 26 33 14 18 - - -
24/05:30am - - - - - NNE 28 35 15 19 - - -
24/05:00am - - - - - N 28 35 15 19 - - -
24/04:30am - - - - - NNE 30 44 16 24 - - -
24/04:00am - - - - - NNE 30 37 16 20 - - -
24/03:30am - - - - - NE 33 46 18 25 - - -
24/03:00am - - - - - NE 32 39 17 21 - - -
24/02:30am - - - - - NE 35 44 19 24 - - -
24/02:00am - - - - - NE 33 41 18 22 - - -
24/01:44am - - - - - NE 28 46 15 25 - - -
24/01:30am - - - - - NNE 22 28 12 15 - - -
24/01:00am - - - - - NE 28 35 15 19 - - -
24/12:30am - - - - - NE 35 44 19 24 - - -
24/12:00am - - - - - NE 35 50 19 27 - - -
 
Date/Time
CST
Temp
°C
App
Temp
°C
Dew
Point
Rel
Hum
%
Delta-T
°C
Wind Press
QNH
hPa
Press
MSL
hPa
Rain
since 9 am
mm
Dir
 
Spd
km/h
Gust
km/h
Spd
kts
Gust
kts
23/11:30pm - - - - - ENE 37 50 20 27 - - -
23/11:00pm - - - - - ENE 39 50 21 27 - - -
23/10:30pm - - - - - ENE 41 50 22 27 - - -
23/10:00pm - - - - - ENE 41 48 22 26 - - -
23/09:30pm - - - - - ENE 43 52 23 28 - - -
23/09:00pm - - - - - ENE 43 52 23 28 - - -
23/08:30pm - - - - - ENE 39 48 21 26 - - -
23/08:00pm - - - - - ENE 37 44 20 24 - - -
23/07:30pm - - - - - ENE 35 43 19 23 - - -
23/07:00pm - - - - - ENE 33 41 18 22 - - -
23/06:30pm - - - - - ENE 30 35 16 19 - - -
23/06:00pm - - - - - NE 26 32 14 17 - - -
23/05:30pm - - - - - NE 30 39 16 21 - - -
23/05:00pm - - - - - NE 30 39 16 21 - - -
23/04:30pm - - - - - NE 32 41 17 22 - - -
23/04:00pm - - - - - ENE 32 37 17 20 - - -
23/03:30pm - - - - - ENE 37 46 20 25 - - -
23/03:00pm - - - - - ENE 32 39 17 21 - - -
23/02:30pm - - - - - ENE 24 30 13 16 - - -
23/02:00pm - - - - - E 30 37 16 20 - - -
23/01:30pm - - - - - E 30 37 16 20 - - -
23/01:00pm - - - - - ENE 20 24 11 13 - - -
23/12:30pm - - - - - ENE 19 22 10 12 - - -
23/12:00pm - - - - - NE 19 24 10 13 - - -
23/11:30am - - - - - N 24 33 13 18 - - -
23/11:00am - - - - - NNE 20 28 11 15 - - -
23/10:30am - - - - - NE 22 26 12 14 - - -
23/10:00am - - - - - NE 22 24 12 13 - - -
23/09:30am - - - - - ENE 22 28 12 15 - - -
23/09:00am - - - - - NE 24 30 13 16 - - -
23/08:30am - - - - - NE 26 32 14 17 - - -
23/08:00am - - - - - ENE 28 32 15 17 - - -
23/07:30am - - - - - ENE 24 30 13 16 - - -
23/07:00am - - - - - ENE 26 30 14 16 - - -
23/06:30am - - - - - ENE 24 28 13 15 - - -
23/06:00am - - - - - ENE 24 28 13 15 - - -
23/05:30am - - - - - ENE 24 28 13 15 - - -
23/05:00am - - - - - ENE 22 28 12 15 - - -
23/04:30am - - - - - ENE 20 26 11 14 - - -
23/04:00am - - - - - ENE 20 24 11 13 - - -
23/03:30am - - - - - ENE 22 28 12 15 - - -
23/03:00am - - - - - ENE 24 30 13 16 - - -
23/02:30am - - - - - ENE 28 33 15 18 - - -
23/02:00am - - - - - ENE 28 33 15 18 - - -
23/01:30am - - - - - ENE 26 32 14 17 - - -
23/01:00am - - - - - ENE 26 33 14 18 - - -
23/12:30am - - - - - ENE 26 32 14 17 - - -
23/12:00am - - - - - ENE 28 32 15 17 - - -
 
Date/Time
CST
Temp
°C
App
Temp
°C
Dew
Point
Rel
Hum
%
Delta-T
°C
Wind Press
QNH
hPa
Press
MSL
hPa
Rain
since 9 am
mm
Dir
 
Spd
km/h
Gust
km/h
Spd
kts
Gust
kts
22/11:30pm - - - - - ENE 26 30 14 16 - - -
22/11:00pm - - - - - ENE 19 22 10 12 - - -
22/10:30pm - - - - - ENE 13 17 7 9 - - -
22/10:00pm - - - - - NE 13 17 7 9 - - -
22/09:30pm - - - - - ENE 11 11 6 6 - - -
22/09:00pm - - - - - ENE 11 13 6 7 - - -
22/08:30pm - - - - - ENE 9 11 5 6 - - -
22/08:00pm - - - - - ENE 9 11 5 6 - - -
22/07:30pm - - - - - ENE 11 13 6 7 - - -
22/07:00pm - - - - - ENE 9 13 5 7 - - -
22/06:30pm - - - - - E 9 13 5 7 - - -
22/06:00pm - - - - - SSE 9 11 5 6 - - -
22/05:30pm - - - - - S 11 13 6 7 - - -
22/05:00pm - - - - - S 11 13 6 7 - - -
22/04:30pm - - - - - S 9 11 5 6 - - -
22/04:00pm - - - - - SW 7 9 4 5 - - -
22/03:30pm - - - - - WSW 7 9 4 5 - - -
22/03:00pm - - - - - WSW 7 9 4 5 - - -

Other Formats:

Comma delimited format used in spreadsheet applications
http://www.bom.gov.au/fwo/IDS60801/IDS60801.95675.axf

JavaScript Object Notation format (JSON) in row-major order
http://www.bom.gov.au/fwo/IDS60801/IDS60801.95675.json